createdAt,value
2023-05-14T00:00:43.612Z,98033.40
2023-05-14T00:03:13.728Z,98032.58
2023-05-14T00:05:44.107Z,98029.35
2023-05-14T00:08:14.025Z,98027.34
2023-05-14T00:10:44.200Z,98028.73
2023-05-14T00:13:15.339Z,98029.65
2023-05-14T00:15:45.303Z,98028.27
2023-05-14T00:18:15.642Z,98032.79
2023-05-14T00:20:45.586Z,98029.73
2023-05-14T00:23:15.556Z,98027.72
2023-05-14T00:25:45.664Z,98026.73
2023-05-14T00:28:15.672Z,98027.20
2023-05-14T00:30:45.608Z,98026.30
2023-05-14T00:33:15.686Z,98024.96
2023-05-14T00:35:46.502Z,98023.99
2023-05-14T00:38:19.062Z,98022.95
2023-05-14T00:40:51.482Z,98019.88
2023-05-14T00:43:26.027Z,98015.94
2023-05-14T00:45:57.134Z,98013.47
2023-05-14T00:48:27.513Z,98018.65
2023-05-14T00:50:57.917Z,98015.23
2023-05-14T00:53:30.146Z,98020.02
2023-05-14T00:56:00.891Z,98023.33
2023-05-14T00:58:31.322Z,98020.64
2023-05-14T01:01:01.665Z,98019.94
2023-05-14T01:03:33.136Z,98018.52
2023-05-14T01:06:15.109Z,98015.84
2023-05-14T01:08:52.687Z,98019.37
2023-05-14T01:11:29.640Z,98023.08
2023-05-14T01:14:09.824Z,98025.44
2023-05-14T01:16:41.353Z,98028.83
2023-05-14T01:19:21.937Z,98030.19
2023-05-14T01:21:52.024Z,98025.76
2023-05-14T01:24:22.167Z,98028.38
2023-05-14T01:26:53.200Z,98029.46
2023-05-14T01:29:24.348Z,98025.70
2023-05-14T01:31:57.461Z,98022.09
2023-05-14T01:34:31.453Z,98021.63
2023-05-14T01:37:03.219Z,98022.15
2023-05-14T01:39:37.440Z,98023.53
2023-05-14T01:42:09.502Z,98025.60
2023-05-14T01:44:39.781Z,98017.86
2023-05-14T01:47:09.937Z,98014.62
2023-05-14T01:49:40.297Z,98011.88
2023-05-14T01:52:11.086Z,98012.42
2023-05-14T01:54:41.712Z,98014.02
2023-05-14T01:57:12.057Z,98015.08
2023-05-14T01:59:42.356Z,98018.83
2023-05-14T02:02:12.616Z,98017.09
2023-05-14T02:04:42.738Z,98022.61
2023-05-14T02:07:13.124Z,98016.60
2023-05-14T02:09:43.399Z,98014.55
2023-05-14T02:12:13.897Z,98012.85
2023-05-14T02:14:44.577Z,98008.89
2023-05-14T02:17:17.397Z,98013.36
2023-05-14T02:19:47.382Z,98004.27
2023-05-14T02:22:17.760Z,98004.27
2023-05-14T02:24:49.439Z,98005.17
2023-05-14T02:27:21.065Z,98008.80
2023-05-14T02:29:51.004Z,98001.56
2023-05-14T02:32:21.148Z,97998.82
2023-05-14T02:34:51.518Z,98002.17
2023-05-14T02:37:21.838Z,97998.58
2023-05-14T02:39:52.085Z,97992.40
2023-05-14T02:42:22.262Z,97991.21
2023-05-14T02:44:52.560Z,97983.65
2023-05-14T02:47:22.722Z,97979.52
2023-05-14T02:49:53.160Z,97981.44
2023-05-14T02:52:23.734Z,97980.92
2023-05-14T02:54:53.802Z,97989.00
2023-05-14T02:57:24.122Z,97982.45
2023-05-14T02:59:54.494Z,97982.45
2023-05-14T03:02:25.223Z,97981.05
2023-05-14T03:04:55.452Z,97978.65
2023-05-14T03:07:25.621Z,97975.73
2023-05-14T03:09:55.664Z,97975.58
2023-05-14T03:12:26.443Z,97975.41
2023-05-14T03:14:56.906Z,97975.58
2023-05-14T03:17:27.135Z,97971.64
2023-05-14T03:19:57.050Z,97976.16
2023-05-14T03:22:27.501Z,97979.27
2023-05-14T03:24:57.467Z,97978.94
2023-05-14T03:27:27.722Z,97984.58
2023-05-14T03:29:57.879Z,97980.30
2023-05-14T03:32:28.016Z,97980.96
2023-05-14T03:34:58.046Z,97971.16
2023-05-14T03:37:28.661Z,97969.02
2023-05-14T03:39:59.637Z,97964.96
2023-05-14T03:42:29.740Z,97961.25
2023-05-14T03:44:59.722Z,97957.52
2023-05-14T03:47:29.835Z,97958.40
2023-05-14T03:50:00.244Z,97954.66
2023-05-14T03:52:30.708Z,97947.16
2023-05-14T03:55:01.018Z,97943.33
2023-05-14T03:57:31.460Z,97936.20
2023-05-14T04:00:01.609Z,97939.04
2023-05-14T04:02:31.854Z,97940.52
2023-05-14T04:05:01.870Z,97939.75
2023-05-14T04:07:32.064Z,97935.33
2023-05-14T04:10:04.350Z,97942.61
2023-05-14T04:12:35.081Z,97941.89
2023-05-14T04:15:07.911Z,97944.34
2023-05-14T04:17:38.364Z,97948.65
2023-05-14T04:20:10.858Z,97951.33
2023-05-14T04:22:41.677Z,97956.02
2023-05-14T04:25:12.040Z,97953.79
2023-05-14T04:27:42.444Z,97950.77
2023-05-14T04:30:13.822Z,97948.42
2023-05-14T04:32:44.298Z,97944.97
2023-05-14T04:35:14.566Z,97938.30
2023-05-14T04:37:44.688Z,97942.45
2023-05-14T04:40:16.367Z,97948.63
2023-05-14T04:42:46.535Z,97950.32
2023-05-14T04:45:16.936Z,97948.67
2023-05-14T04:47:47.786Z,97944.90
2023-05-14T04:50:18.239Z,97943.14
2023-05-14T04:52:48.496Z,97939.30
2023-05-14T04:55:18.727Z,97935.96
2023-05-14T04:57:48.932Z,97930.09
2023-05-14T05:00:21.611Z,97930.75
2023-05-14T05:02:52.097Z,97934.20
2023-05-14T05:05:24.484Z,97931.21
2023-05-14T05:07:55.150Z,97929.35
2023-05-14T05:10:26.221Z,97929.92
2023-05-14T05:12:56.364Z,97930.92
2023-05-14T05:15:27.386Z,97930.98
2023-05-14T05:17:57.426Z,97925.84
2023-05-14T05:20:27.984Z,97929.02
2023-05-14T05:22:57.994Z,97925.20
2023-05-14T05:25:28.395Z,97929.14
2023-05-14T05:28:00.708Z,97930.67
2023-05-14T05:30:31.100Z,97929.27
2023-05-14T05:33:01.289Z,97925.08
2023-05-14T05:35:31.522Z,97923.81
2023-05-14T05:38:01.933Z,97924.77
2023-05-14T05:40:32.452Z,97924.89
2023-05-14T05:43:02.579Z,97925.20
2023-05-14T05:45:32.979Z,97927.35
2023-05-14T05:48:03.376Z,97927.69
2023-05-14T05:50:33.469Z,97932.13
2023-05-14T05:53:03.778Z,97935.05
2023-05-14T05:55:33.741Z,97935.85
2023-05-14T05:58:04.298Z,97922.23
2023-05-14T06:00:34.606Z,97918.17
2023-05-14T06:03:04.653Z,97910.77
2023-05-14T06:05:34.980Z,97904.77
2023-05-14T06:08:05.662Z,97911.53
2023-05-14T06:10:37.140Z,97913.10
2023-05-14T06:13:07.251Z,97914.39
2023-05-14T06:15:37.220Z,97913.81
2023-05-14T06:18:07.453Z,97911.48
2023-05-14T06:20:37.672Z,97908.73
2023-05-14T06:23:08.220Z,97916.85
2023-05-14T06:25:38.361Z,97911.33
2023-05-14T06:28:08.423Z,97905.06
2023-05-14T06:30:38.604Z,97901.75
2023-05-14T06:33:08.992Z,97904.19
2023-05-14T06:35:39.419Z,97910.23
2023-05-14T06:38:09.662Z,97907.74
2023-05-14T06:40:39.710Z,97905.67
2023-05-14T06:43:09.872Z,97904.36
2023-05-14T06:45:39.919Z,97904.44
2023-05-14T06:48:10.967Z,97894.99
2023-05-14T06:50:40.839Z,97893.71
2023-05-14T06:53:11.018Z,97898.01
2023-05-14T06:55:41.969Z,97890.33
2023-05-14T06:58:13.946Z,97888.17
2023-05-14T07:00:46.486Z,97886.83
2023-05-14T07:03:16.985Z,97882.86
2023-05-14T07:05:47.578Z,97883.94
2023-05-14T07:08:17.741Z,97882.50
2023-05-14T07:10:47.939Z,97886.54
2023-05-14T07:13:18.175Z,97884.70
2023-05-14T07:15:48.272Z,97884.34
2023-05-14T07:18:18.467Z,97882.70
2023-05-14T07:20:49.700Z,97881.98
2023-05-14T07:23:20.255Z,97878.84
2023-05-14T07:25:50.456Z,97881.52
2023-05-14T07:28:20.862Z,97884.05
2023-05-14T07:30:51.099Z,97884.55
2023-05-14T07:33:21.940Z,97894.35
2023-05-14T07:35:52.330Z,97889.81
2023-05-14T07:38:23.103Z,97890.52
2023-05-14T07:40:53.035Z,97891.36
2023-05-14T07:43:23.417Z,97897.12
2023-05-14T07:45:53.782Z,97896.85
2023-05-14T07:48:24.134Z,97900.16
2023-05-14T07:50:54.403Z,97903.04
2023-05-14T07:53:29.532Z,97912.20
2023-05-14T07:56:00.359Z,97913.23
2023-05-14T07:58:30.780Z,97912.83
2023-05-14T08:01:01.116Z,97914.96
2023-05-14T08:03:31.621Z,97920.95
2023-05-14T08:06:02.158Z,97911.39
2023-05-14T08:08:32.258Z,97908.84
2023-05-14T08:11:03.145Z,97908.60
2023-05-14T08:13:33.300Z,97897.46
2023-05-14T08:16:03.750Z,97888.35
2023-05-14T08:18:33.761Z,97881.48
2023-05-14T08:21:04.080Z,97878.73
2023-05-14T08:23:34.462Z,97876.09
2023-05-14T08:26:04.625Z,97873.58
2023-05-14T08:28:34.820Z,97872.44
2023-05-14T08:31:05.322Z,97868.73
2023-05-14T08:33:35.546Z,97872.27
2023-05-14T08:36:06.905Z,97869.25
2023-05-14T08:38:37.111Z,97867.59
2023-05-14T08:41:08.007Z,97857.11
2023-05-14T08:43:51.524Z,97859.39
2023-05-14T08:46:24.776Z,97861.02
2023-05-14T08:48:58.362Z,97859.39
2023-05-14T08:51:29.509Z,97853.92
2023-05-14T08:54:02.948Z,97849.50
2023-05-14T08:56:34.660Z,97840.25
2023-05-14T08:59:04.966Z,97835.98
2023-05-14T09:01:35.788Z,97835.98
2023-05-14T09:04:08.325Z,97839.66
2023-05-14T09:06:39.679Z,97832.94
2023-05-14T09:09:11.222Z,97836.94
2023-05-14T09:11:43.838Z,97841.27
2023-05-14T09:14:14.200Z,97840.00
2023-05-14T09:16:46.111Z,97831.13
2023-05-14T09:19:18.658Z,97834.37
2023-05-14T09:21:50.137Z,97834.08
2023-05-14T09:24:24.509Z,97829.83
2023-05-14T09:26:56.133Z,97828.81
2023-05-14T09:29:27.226Z,97835.89
2023-05-14T09:31:58.542Z,97822.61
2023-05-14T09:34:30.868Z,97823.54
2023-05-14T09:37:02.186Z,97833.31
2023-05-14T09:39:33.540Z,97815.60
2023-05-14T09:42:04.138Z,97814.71
2023-05-14T09:44:36.036Z,97816.10
2023-05-14T09:47:06.937Z,97817.34
2023-05-14T09:49:37.405Z,97809.41
2023-05-14T09:52:08.510Z,97806.04
2023-05-14T09:54:39.344Z,97805.63
2023-05-14T09:57:09.719Z,97814.73
2023-05-14T09:59:39.939Z,97801.94
2023-05-14T10:02:25.613Z,97802.77
2023-05-14T10:05:00.021Z,97809.21
2023-05-14T10:07:35.748Z,97798.31
2023-05-14T10:10:11.337Z,97800.86
2023-05-14T10:12:44.919Z,97796.23
2023-05-14T10:15:23.379Z,97788.23
2023-05-14T10:18:03.381Z,97783.27
2023-05-14T10:20:39.964Z,97776.60
2023-05-14T10:23:12.487Z,97775.86
2023-05-14T10:25:43.040Z,97772.92
2023-05-14T10:28:13.174Z,97767.94
2023-05-14T10:30:46.418Z,97763.42
2023-05-14T10:33:16.281Z,97755.51
2023-05-14T10:38:16.838Z,97755.27
2023-05-14T10:40:54.069Z,97738.84
2023-05-14T10:43:29.894Z,97736.91
2023-05-14T10:46:04.374Z,97741.39
2023-05-14T10:48:38.718Z,97734.20
2023-05-14T10:51:13.495Z,97727.29
2023-05-14T10:53:46.720Z,97725.29
2023-05-14T10:56:20.780Z,97723.36
2023-05-14T10:58:54.138Z,97712.98
2023-05-14T11:01:25.773Z,97712.98
2023-05-14T11:04:04.876Z,97710.05
2023-05-14T11:06:40.391Z,97718.42
2023-05-14T11:09:14.427Z,97707.25
2023-05-14T11:11:48.189Z,97706.96
2023-05-14T11:14:22.146Z,97705.70
2023-05-14T11:16:56.190Z,97697.39
2023-05-14T11:19:28.830Z,97692.41
2023-05-14T11:22:01.817Z,97692.52
2023-05-14T11:24:35.028Z,97687.12
2023-05-14T11:27:09.101Z,97684.52
2023-05-14T11:29:45.540Z,97689.09
2023-05-14T11:32:19.264Z,97682.35
2023-05-14T11:34:52.184Z,97678.38
2023-05-14T11:37:25.780Z,97677.28
2023-05-14T11:40:03.101Z,97670.59
2023-05-14T11:42:35.924Z,97671.18
2023-05-14T11:45:12.416Z,97667.22
2023-05-14T11:47:47.451Z,97663.95
2023-05-14T11:50:23.647Z,97681.45
2023-05-14T11:53:00.537Z,97676.42
2023-05-14T11:55:35.660Z,97670.71
2023-05-14T11:58:08.341Z,97671.75
2023-05-14T12:00:39.978Z,97674.67
2023-05-14T12:03:13.634Z,97672.17
2023-05-14T12:05:58.739Z,97666.27
2023-05-14T12:08:33.282Z,97664.28
2023-05-14T12:11:06.380Z,97671.59
2023-05-14T12:13:38.297Z,97666.47
2023-05-14T12:16:13.113Z,97666.98
2023-05-14T12:18:48.283Z,97661.46
2023-05-14T12:21:22.274Z,97656.23
2023-05-14T12:24:01.469Z,97653.29
2023-05-14T12:26:36.528Z,97648.15
2023-05-14T12:29:09.425Z,97637.42
2023-05-14T12:31:47.160Z,97631.91
2023-05-14T12:34:20.168Z,97625.02
2023-05-14T12:36:51.317Z,97615.98
2023-05-14T12:39:24.130Z,97611.55
2023-05-14T12:41:56.801Z,97614.97
2023-05-14T12:44:29.605Z,97605.45
2023-05-14T12:47:02.176Z,97600.75
2023-05-14T12:49:35.586Z,97600.48
2023-05-14T12:54:50.522Z,97599.59
2023-05-14T12:57:23.900Z,97589.44
2023-05-14T12:59:56.884Z,97579.69
2023-05-14T13:02:29.668Z,97581.81
2023-05-14T13:05:02.996Z,97575.95
2023-05-14T13:07:36.462Z,97573.88
2023-05-14T13:10:10.757Z,97571.31
2023-05-14T13:12:43.738Z,97571.55
2023-05-14T13:15:16.826Z,97570.00
2023-05-14T13:17:47.526Z,97570.70
2023-05-14T13:20:20.768Z,97570.36
2023-05-14T13:22:53.501Z,97562.23
2023-05-14T13:25:24.779Z,97562.38
2023-05-14T13:27:58.467Z,97567.05
2023-05-14T13:30:32.484Z,97568.08
2023-05-14T13:33:05.853Z,97572.38
2023-05-14T13:35:38.592Z,97572.20
2023-05-14T13:38:11.200Z,97570.79
2023-05-14T13:40:43.836Z,97570.39
2023-05-14T13:43:18.934Z,97562.17
2023-05-14T13:45:51.961Z,97558.20
2023-05-14T13:48:24.555Z,97554.65
2023-05-14T13:50:57.604Z,97550.96
2023-05-14T13:53:28.507Z,97543.82
2023-05-14T13:56:02.159Z,97540.45
2023-05-14T13:58:35.398Z,97534.94
2023-05-14T14:01:08.444Z,97533.60
2023-05-14T14:03:39.300Z,97537.05
2023-05-14T14:06:14.498Z,97539.35
2023-05-14T14:08:47.380Z,97536.59
2023-05-14T14:11:40.536Z,97526.31
2023-05-14T14:17:42.153Z,97515.65
2023-05-14T14:23:44.558Z,97504.75
2023-05-14T14:26:19.368Z,97501.94
2023-05-14T14:28:52.519Z,97503.58
2023-05-14T14:31:25.234Z,97495.36
2023-05-14T14:33:58.458Z,97484.84
2023-05-14T14:36:32.404Z,97477.48
2023-05-14T14:39:05.867Z,97468.13
2023-05-14T14:41:38.983Z,97474.20
2023-05-14T14:44:10.144Z,97476.27
2023-05-14T14:49:51.166Z,97474.94
2023-05-14T14:52:22.104Z,97468.52
2023-05-14T14:55:14.933Z,97463.30
2023-05-14T15:00:59.395Z,97454.88
2023-05-14T15:03:31.884Z,97453.44
2023-05-14T15:06:04.833Z,97449.32
2023-05-14T15:08:40.117Z,97448.02
2023-05-14T15:11:12.879Z,97441.05
2023-05-14T15:13:44.951Z,97433.70
2023-05-14T15:16:17.311Z,97433.06
2023-05-14T15:18:50.863Z,97428.08
2023-05-14T15:21:24.881Z,97426.73
2023-05-14T15:23:58.480Z,97422.51
2023-05-14T15:26:30.677Z,97420.27
2023-05-14T15:29:02.934Z,97416.95
2023-05-14T15:31:35.280Z,97411.98
2023-05-14T15:34:07.449Z,97412.29
2023-05-14T15:36:39.525Z,97415.09
2023-05-14T15:39:12.154Z,97415.33
2023-05-14T15:41:44.344Z,97415.56
2023-05-14T15:44:16.518Z,97418.71
2023-05-14T15:46:48.855Z,97418.19
2023-05-14T15:49:20.937Z,97416.52
2023-05-14T15:51:58.820Z,97413.75
2023-05-14T15:54:32.053Z,97412.85
2023-05-14T15:57:10.832Z,97404.77
2023-05-14T15:59:53.704Z,97401.70
2023-05-14T16:02:33.541Z,97394.94
2023-05-14T16:05:07.487Z,97390.36
2023-05-14T16:07:39.932Z,97390.44
2023-05-14T16:10:13.218Z,97383.58
2023-05-14T16:12:43.409Z,97379.68
2023-05-14T16:15:15.954Z,97375.16
2023-05-14T16:17:48.057Z,97369.86
2023-05-14T16:20:20.387Z,97368.27
2023-05-14T16:22:52.440Z,97360.17
2023-05-14T16:25:24.911Z,97352.43
2023-05-14T16:27:57.871Z,97351.10
2023-05-14T16:30:28.317Z,97344.27
2023-05-14T16:33:00.799Z,97342.64
2023-05-14T16:35:33.091Z,97339.36
2023-05-14T16:38:05.370Z,97340.38
2023-05-14T16:40:37.428Z,97341.81
2023-05-14T16:43:09.541Z,97346.05
2023-05-14T16:45:41.830Z,97346.89
2023-05-14T16:48:13.796Z,97344.56
2023-05-14T16:50:45.902Z,97341.55
2023-05-14T16:53:18.152Z,97340.35
2023-05-14T16:55:50.368Z,97339.50
2023-05-14T16:58:22.710Z,97336.12
2023-05-14T17:00:55.199Z,97334.98
2023-05-14T17:03:27.211Z,97330.38
2023-05-14T17:06:01.357Z,97331.70
2023-05-14T17:08:35.796Z,97331.88
2023-05-14T17:11:08.647Z,97330.74
2023-05-14T17:13:40.815Z,97329.16
2023-05-14T17:16:13.234Z,97329.74
2023-05-14T17:18:45.999Z,97325.55
2023-05-14T17:21:18.038Z,97326.43
2023-05-14T17:23:50.504Z,97322.85
2023-05-14T17:26:22.944Z,97319.41
2023-05-14T17:28:55.276Z,97317.96
2023-05-14T17:31:27.398Z,97313.27
2023-05-14T17:33:59.524Z,97308.25
2023-05-14T17:36:32.598Z,97303.83
2023-05-14T17:39:04.811Z,97299.80
2023-05-14T17:41:36.944Z,97296.20
2023-05-14T17:44:10.216Z,97295.24
2023-05-14T17:46:45.148Z,97292.50
2023-05-14T17:49:17.186Z,97289.80
2023-05-14T17:51:49.306Z,97290.55
2023-05-14T17:54:21.714Z,97290.08
2023-05-14T17:56:54.108Z,97286.75
2023-05-14T17:59:26.507Z,97287.38
2023-05-14T18:01:58.459Z,97279.01
2023-05-14T18:04:30.679Z,97276.04
2023-05-14T18:07:03.665Z,97274.32
2023-05-14T18:09:36.048Z,97267.20
2023-05-14T18:12:09.235Z,97264.31
2023-05-14T18:14:42.557Z,97265.52
2023-05-14T18:17:15.697Z,97264.81
2023-05-14T18:19:49.132Z,97264.68
2023-05-14T18:22:21.947Z,97262.09
2023-05-14T18:24:55.450Z,97259.80
2023-05-14T18:27:27.740Z,97257.80
2023-05-14T18:30:00.189Z,97262.90
2023-05-14T18:32:33.020Z,97253.53
2023-05-14T18:35:07.760Z,97256.29
2023-05-14T18:37:40.251Z,97262.17
2023-05-14T18:40:16.899Z,97262.30
2023-05-14T18:42:50.706Z,97262.67
2023-05-14T18:45:24.476Z,97267.61
2023-05-14T18:47:57.828Z,97270.12
2023-05-14T18:50:30.504Z,97272.94
2023-05-14T18:53:04.489Z,97276.45
2023-05-14T18:55:38.024Z,97280.90
2023-05-14T18:58:08.615Z,97284.67
2023-05-14T19:00:41.114Z,97283.29
2023-05-14T19:03:13.752Z,97317.11
2023-05-14T19:05:46.164Z,97310.38
2023-05-14T19:08:19.443Z,97298.66
2023-05-14T19:10:51.606Z,97309.77
2023-05-14T19:13:24.108Z,97310.65
2023-05-14T19:15:56.770Z,97306.30
2023-05-14T19:18:30.789Z,97305.44
2023-05-14T19:21:09.147Z,97308.45
2023-05-14T19:23:41.787Z,97306.43
2023-05-14T19:26:13.946Z,97306.45
2023-05-14T19:28:46.062Z,97310.40
2023-05-14T19:31:18.435Z,97318.65
2023-05-14T19:33:50.946Z,97324.40
2023-05-14T19:36:23.764Z,97323.92
2023-05-14T19:38:55.780Z,97324.45
2023-05-14T19:41:27.983Z,97329.89
2023-05-14T19:44:02.775Z,97327.75
2023-05-14T19:46:35.381Z,97320.67
2023-05-14T19:49:07.560Z,97320.56
2023-05-14T19:51:39.734Z,97318.53
2023-05-14T19:54:12.943Z,97315.89
2023-05-14T19:56:43.624Z,97315.92
2023-05-14T19:59:15.692Z,97321.55
2023-05-14T20:01:48.033Z,97317.24
2023-05-14T20:04:20.034Z,97315.66
2023-05-14T20:06:52.927Z,97317.27
2023-05-14T20:09:24.961Z,97319.27
2023-05-14T20:12:18.156Z,97325.15
2023-05-14T20:14:51.090Z,97331.14
2023-05-14T20:17:23.826Z,97333.94
2023-05-14T20:19:55.835Z,97336.63
2023-05-14T20:22:28.160Z,97335.85
2023-05-14T20:25:00.207Z,97336.86
2023-05-14T20:27:32.982Z,97334.51
2023-05-14T20:30:05.313Z,97332.14
2023-05-14T20:32:37.963Z,97333.18
2023-05-14T20:35:11.516Z,97326.83
2023-05-14T20:37:44.262Z,97321.47
2023-05-14T20:40:16.863Z,97313.16
2023-05-14T20:42:51.994Z,97312.17
2023-05-14T20:45:24.284Z,97311.94
2023-05-14T20:47:56.676Z,97313.67
2023-05-14T20:50:28.721Z,97310.20
2023-05-14T20:53:01.264Z,97309.95
2023-05-14T20:55:33.498Z,97304.52
2023-05-14T20:58:05.557Z,97301.65
2023-05-14T21:00:38.256Z,97301.06
2023-05-14T21:03:10.576Z,97297.64
2023-05-14T21:05:43.971Z,97292.23
2023-05-14T21:08:17.517Z,97292.90
2023-05-14T21:10:49.734Z,97286.06
2023-05-14T21:13:21.963Z,97283.08
2023-05-14T21:15:54.224Z,97274.03
2023-05-14T21:18:33.076Z,97274.71
2023-05-14T21:21:05.364Z,97264.38
2023-05-14T21:23:37.759Z,97264.09
2023-05-14T21:26:09.841Z,97252.57
2023-05-14T21:28:42.081Z,97247.59
2023-05-14T21:31:14.203Z,97233.25
2023-05-14T21:33:46.601Z,97222.40
2023-05-14T21:36:18.735Z,97207.61
2023-05-14T21:38:50.974Z,97192.34
2023-05-14T21:41:23.116Z,97181.64
2023-05-14T21:43:55.278Z,97170.37
2023-05-14T21:46:29.185Z,97177.13
2023-05-14T21:49:01.441Z,97175.14
2023-05-14T21:51:33.525Z,97175.09
2023-05-14T21:54:05.815Z,97178.41
2023-05-14T21:56:38.377Z,97176.98
2023-05-14T21:59:11.533Z,97179.06
2023-05-14T22:04:19.484Z,97180.84
2023-05-14T22:06:52.063Z,97174.92
2023-05-14T22:09:24.201Z,97173.57
2023-05-14T22:11:56.794Z,97176.74
2023-05-14T22:14:29.140Z,97177.22
2023-05-14T22:17:01.327Z,97168.23
2023-05-14T22:19:34.407Z,97154.95
2023-05-14T22:22:06.976Z,97144.63
2023-05-14T22:24:38.890Z,97143.48
2023-05-14T22:27:11.006Z,97134.41
2023-05-14T22:29:43.451Z,97127.09
2023-05-14T22:32:15.430Z,97123.16
2023-05-14T22:34:47.561Z,97117.45
2023-05-14T22:37:19.804Z,97110.58
2023-05-14T22:39:52.137Z,97098.04
2023-05-14T22:42:24.108Z,97088.45
2023-05-14T22:44:56.152Z,97077.04
2023-05-14T22:47:28.336Z,97068.55
2023-05-14T22:50:00.494Z,97063.05
2023-05-14T22:52:32.652Z,97067.63
2023-05-14T22:55:04.851Z,97070.09
2023-05-14T22:57:39.260Z,97071.44
2023-05-14T23:00:15.835Z,97066.34
2023-05-14T23:02:47.974Z,97067.52
2023-05-14T23:05:20.334Z,97076.13
2023-05-14T23:07:53.735Z,97076.02
2023-05-14T23:10:25.737Z,97079.80
2023-05-14T23:12:57.933Z,97076.39
2023-05-14T23:15:30.960Z,97064.31
2023-05-14T23:18:03.135Z,97065.02
2023-05-14T23:20:35.407Z,97063.87
2023-05-14T23:23:07.866Z,97056.95
2023-05-14T23:25:40.193Z,97052.75
2023-05-14T23:28:12.803Z,97059.00
2023-05-14T23:30:44.885Z,97051.56
2023-05-14T23:33:17.289Z,97050.83
2023-05-14T23:35:49.940Z,97048.80
2023-05-14T23:38:22.302Z,97048.84
2023-05-14T23:40:54.234Z,97036.13
2023-05-14T23:43:26.790Z,97030.04
2023-05-14T23:45:58.983Z,97020.95
2023-05-14T23:48:31.447Z,97020.11
2023-05-14T23:51:03.678Z,97014.48
2023-05-14T23:53:35.984Z,97010.68
2023-05-14T23:56:09.223Z,97001.33
2023-05-14T23:58:41.191Z,96994.38
